sensor_id;sensor_type;location;lat;lon;timestamp;P1;durP1;ratioP1;P2;durP2;ratioP2
80421;SDS011;69763;50.182;9.144;2023-08-07T00:02:25;4.72;;;2.80;;
80421;SDS011;69763;50.182;9.144;2023-08-07T00:04:51;7.10;;;2.60;;
80421;SDS011;69763;50.182;9.144;2023-08-07T00:07:16;7.93;;;2.90;;
80421;SDS011;69763;50.182;9.144;2023-08-07T00:09:42;3.95;;;2.17;;
80421;SDS011;69763;50.182;9.144;2023-08-07T00:12:07;4.95;;;2.13;;
80421;SDS011;69763;50.182;9.144;2023-08-07T00:14:33;4.45;;;2.53;;
80421;SDS011;69763;50.182;9.144;2023-08-07T00:16:58;8.82;;;2.30;;
80421;SDS011;69763;50.182;9.144;2023-08-07T00:19:25;3.92;;;1.80;;
80421;SDS011;69763;50.182;9.144;2023-08-07T00:21:50;3.70;;;1.95;;
80421;SDS011;69763;50.182;9.144;2023-08-07T00:24:15;4.00;;;1.73;;
80421;SDS011;69763;50.182;9.144;2023-08-07T00:26:41;3.88;;;1.92;;
80421;SDS011;69763;50.182;9.144;2023-08-07T00:29:06;8.88;;;1.80;;
80421;SDS011;69763;50.182;9.144;2023-08-07T00:31:32;6.22;;;2.20;;
80421;SDS011;69763;50.182;9.144;2023-08-07T00:33:57;6.03;;;2.10;;
80421;SDS011;69763;50.182;9.144;2023-08-07T00:36:24;5.50;;;2.08;;
80421;SDS011;69763;50.182;9.144;2023-08-07T00:38:49;3.75;;;1.50;;
80421;SDS011;69763;50.182;9.144;2023-08-07T00:41:15;6.25;;;1.90;;
80421;SDS011;69763;50.182;9.144;2023-08-07T00:43:41;4.78;;;1.98;;
80421;SDS011;69763;50.182;9.144;2023-08-07T00:46:06;2.63;;;1.50;;
80421;SDS011;69763;50.182;9.144;2023-08-07T00:48:32;6.03;;;2.15;;
80421;SDS011;69763;50.182;9.144;2023-08-07T00:50:57;3.25;;;1.65;;
80421;SDS011;69763;50.182;9.144;2023-08-07T00:53:24;4.88;;;1.60;;
80421;SDS011;69763;50.182;9.144;2023-08-07T00:55:50;6.15;;;1.90;;
80421;SDS011;69763;50.182;9.144;2023-08-07T00:58:16;7.05;;;1.45;;
80421;SDS011;69763;50.182;9.144;2023-08-07T01:00:42;9.02;;;1.52;;
80421;SDS011;69763;50.182;9.144;2023-08-07T01:03:07;11.73;;;1.80;;
80421;SDS011;69763;50.182;9.144;2023-08-07T01:05:33;2.58;;;1.38;;
80421;SDS011;69763;50.182;9.144;2023-08-07T01:07:59;2.42;;;1.60;;
80421;SDS011;69763;50.182;9.144;2023-08-07T01:10:36;3.20;;;1.70;;
80421;SDS011;69763;50.182;9.144;2023-08-07T01:13:14;4.95;;;1.58;;
80421;SDS011;69763;50.182;9.144;2023-08-07T01:15:44;4.28;;;1.50;;
80421;SDS011;69763;50.182;9.144;2023-08-07T01:18:11;2.35;;;1.55;;
80421;SDS011;69763;50.182;9.144;2023-08-07T01:20:38;3.13;;;1.65;;
80421;SDS011;69763;50.182;9.144;2023-08-07T01:23:05;3.58;;;1.38;;
80421;SDS011;69763;50.182;9.144;2023-08-07T01:25:30;2.75;;;1.80;;
80421;SDS011;69763;50.182;9.144;2023-08-07T01:27:59;2.95;;;1.30;;
80421;SDS011;69763;50.182;9.144;2023-08-07T01:30:30;3.30;;;1.67;;
80421;SDS011;69763;50.182;9.144;2023-08-07T01:33:03;2.88;;;1.48;;
80421;SDS011;69763;50.182;9.144;2023-08-07T01:35:34;3.63;;;1.45;;
80421;SDS011;69763;50.182;9.144;2023-08-07T01:38:04;3.90;;;1.30;;
80421;SDS011;69763;50.182;9.144;2023-08-07T01:40:30;2.65;;;1.40;;
80421;SDS011;69763;50.182;9.144;2023-08-07T01:42:56;4.25;;;2.28;;
80421;SDS011;69763;50.182;9.144;2023-08-07T01:45:22;4.40;;;1.80;;
80421;SDS011;69763;50.182;9.144;2023-08-07T01:47:48;3.28;;;1.65;;
80421;SDS011;69763;50.182;9.144;2023-08-07T01:50:14;6.72;;;1.90;;
80421;SDS011;69763;50.182;9.144;2023-08-07T01:52:39;3.90;;;1.50;;
80421;SDS011;69763;50.182;9.144;2023-08-07T01:55:06;5.93;;;1.70;;
80421;SDS011;69763;50.182;9.144;2023-08-07T01:57:32;4.50;;;1.73;;
80421;SDS011;69763;50.182;9.144;2023-08-07T01:59:58;3.85;;;1.77;;
80421;SDS011;69763;50.182;9.144;2023-08-07T02:02:23;4.82;;;1.70;;
80421;SDS011;69763;50.182;9.144;2023-08-07T02:04:48;4.28;;;1.60;;
80421;SDS011;69763;50.182;9.144;2023-08-07T02:07:14;3.15;;;1.52;;
80421;SDS011;69763;50.182;9.144;2023-08-07T02:09:39;7.72;;;1.92;;
80421;SDS011;69763;50.182;9.144;2023-08-07T02:12:07;6.25;;;1.80;;
80421;SDS011;69763;50.182;9.144;2023-08-07T02:14:32;3.97;;;1.70;;
80421;SDS011;69763;50.182;9.144;2023-08-07T02:16:58;2.63;;;1.40;;
80421;SDS011;69763;50.182;9.144;2023-08-07T02:19:23;7.22;;;1.80;;
80421;SDS011;69763;50.182;9.144;2023-08-07T02:21:48;15.68;;;2.20;;
80421;SDS011;69763;50.182;9.144;2023-08-07T02:24:14;5.35;;;2.25;;
80421;SDS011;69763;50.182;9.144;2023-08-07T02:26:39;3.58;;;1.60;;
80421;SDS011;69763;50.182;9.144;2023-08-07T02:29:06;7.05;;;2.15;;
80421;SDS011;69763;50.182;9.144;2023-08-07T02:31:31;6.15;;;2.00;;
80421;SDS011;69763;50.182;9.144;2023-08-07T02:33:57;5.32;;;1.85;;
80421;SDS011;69763;50.182;9.144;2023-08-07T02:36:22;6.60;;;2.08;;
80421;SDS011;69763;50.182;9.144;2023-08-07T02:38:47;8.00;;;1.77;;
80421;SDS011;69763;50.182;9.144;2023-08-07T02:41:13;2.95;;;1.70;;
80421;SDS011;69763;50.182;9.144;2023-08-07T02:43:38;5.05;;;1.88;;
80421;SDS011;69763;50.182;9.144;2023-08-07T02:46:05;3.00;;;1.85;;
80421;SDS011;69763;50.182;9.144;2023-08-07T02:48:30;7.15;;;2.00;;
80421;SDS011;69763;50.182;9.144;2023-08-07T02:50:56;4.28;;;2.22;;
80421;SDS011;69763;50.182;9.144;2023-08-07T02:53:21;3.75;;;2.10;;
80421;SDS011;69763;50.182;9.144;2023-08-07T02:55:47;7.55;;;2.38;;
80421;SDS011;69763;50.182;9.144;2023-08-07T02:58:12;4.97;;;2.10;;
80421;SDS011;69763;50.182;9.144;2023-08-07T03:00:37;4.78;;;1.73;;
80421;SDS011;69763;50.182;9.144;2023-08-07T03:03:04;5.10;;;2.33;;
80421;SDS011;69763;50.182;9.144;2023-08-07T03:05:30;4.65;;;2.05;;
80421;SDS011;69763;50.182;9.144;2023-08-07T03:07:55;4.45;;;2.30;;
80421;SDS011;69763;50.182;9.144;2023-08-07T03:10:20;7.55;;;2.00;;
80421;SDS011;69763;50.182;9.144;2023-08-07T03:12:46;3.35;;;1.70;;
80421;SDS011;69763;50.182;9.144;2023-08-07T03:15:12;10.50;;;2.30;;
80421;SDS011;69763;50.182;9.144;2023-08-07T03:17:38;4.60;;;2.10;;
80421;SDS011;69763;50.182;9.144;2023-08-07T03:20:05;2.70;;;1.77;;
80421;SDS011;69763;50.182;9.144;2023-08-07T03:22:31;5.28;;;2.13;;
80421;SDS011;69763;50.182;9.144;2023-08-07T03:24:57;5.70;;;2.05;;
80421;SDS011;69763;50.182;9.144;2023-08-07T03:27:22;5.95;;;2.30;;
80421;SDS011;69763;50.182;9.144;2023-08-07T03:29:47;13.30;;;3.38;;
80421;SDS011;69763;50.182;9.144;2023-08-07T03:32:13;4.30;;;2.40;;
80421;SDS011;69763;50.182;9.144;2023-08-07T03:34:38;9.18;;;2.38;;
80421;SDS011;69763;50.182;9.144;2023-08-07T03:37:05;6.55;;;2.40;;
80421;SDS011;69763;50.182;9.144;2023-08-07T03:39:30;9.70;;;2.10;;
80421;SDS011;69763;50.182;9.144;2023-08-07T03:41:56;4.40;;;2.25;;
80421;SDS011;69763;50.182;9.144;2023-08-07T03:44:21;6.93;;;1.90;;
80421;SDS011;69763;50.182;9.144;2023-08-07T03:46:46;7.82;;;2.70;;
80421;SDS011;69763;50.182;9.144;2023-08-07T03:49:12;6.80;;;2.15;;
80421;SDS011;69763;50.182;9.144;2023-08-07T03:51:37;8.82;;;2.20;;
80421;SDS011;69763;50.182;9.144;2023-08-07T03:54:04;6.28;;;2.33;;
80421;SDS011;69763;50.182;9.144;2023-08-07T03:56:29;5.53;;;2.42;;
80421;SDS011;69763;50.182;9.144;2023-08-07T03:58:55;4.38;;;2.25;;
80421;SDS011;69763;50.182;9.144;2023-08-07T04:01:20;5.65;;;2.85;;
80421;SDS011;69763;50.182;9.144;2023-08-07T04:03:46;4.38;;;2.10;;
80421;SDS011;69763;50.182;9.144;2023-08-07T04:06:11;4.28;;;2.03;;
80421;SDS011;69763;50.182;9.144;2023-08-07T04:08:37;6.97;;;2.33;;
80421;SDS011;69763;50.182;9.144;2023-08-07T04:11:04;5.95;;;2.30;;
80421;SDS011;69763;50.182;9.144;2023-08-07T04:13:30;4.65;;;1.90;;
80421;SDS011;69763;50.182;9.144;2023-08-07T04:15:56;10.52;;;2.42;;
80421;SDS011;69763;50.182;9.144;2023-08-07T04:18:21;7.32;;;2.58;;
80421;SDS011;69763;50.182;9.144;2023-08-07T04:20:48;5.32;;;2.38;;
80421;SDS011;69763;50.182;9.144;2023-08-07T04:23:14;5.20;;;2.47;;
80421;SDS011;69763;50.182;9.144;2023-08-07T04:25:39;5.10;;;2.40;;
80421;SDS011;69763;50.182;9.144;2023-08-07T04:28:06;10.50;;;2.95;;
80421;SDS011;69763;50.182;9.144;2023-08-07T04:30:31;3.75;;;2.20;;
80421;SDS011;69763;50.182;9.144;2023-08-07T04:32:57;8.93;;;2.30;;
80421;SDS011;69763;50.182;9.144;2023-08-07T04:35:22;7.85;;;2.88;;
80421;SDS011;69763;50.182;9.144;2023-08-07T04:37:47;14.13;;;2.97;;
80421;SDS011;69763;50.182;9.144;2023-08-07T04:40:13;11.27;;;3.38;;
80421;SDS011;69763;50.182;9.144;2023-08-07T04:42:38;6.28;;;2.80;;
80421;SDS011;69763;50.182;9.144;2023-08-07T04:45:06;7.75;;;2.63;;
80421;SDS011;69763;50.182;9.144;2023-08-07T04:47:32;6.22;;;2.35;;
80421;SDS011;69763;50.182;9.144;2023-08-07T04:49:57;6.47;;;2.28;;
80421;SDS011;69763;50.182;9.144;2023-08-07T04:52:22;6.05;;;2.97;;
80421;SDS011;69763;50.182;9.144;2023-08-07T04:54:48;6.97;;;2.92;;
80421;SDS011;69763;50.182;9.144;2023-08-07T04:57:13;5.47;;;2.45;;
80421;SDS011;69763;50.182;9.144;2023-08-07T04:59:39;8.07;;;2.58;;
80421;SDS011;69763;50.182;9.144;2023-08-07T05:02:06;5.20;;;2.38;;
80421;SDS011;69763;50.182;9.144;2023-08-07T05:04:31;7.85;;;2.92;;
80421;SDS011;69763;50.182;9.144;2023-08-07T05:06:56;7.93;;;2.72;;
80421;SDS011;69763;50.182;9.144;2023-08-07T05:09:22;5.40;;;2.42;;
80421;SDS011;69763;50.182;9.144;2023-08-07T05:11:47;7.38;;;2.35;;
80421;SDS011;69763;50.182;9.144;2023-08-07T05:14:13;7.95;;;3.03;;
80421;SDS011;69763;50.182;9.144;2023-08-07T05:16:38;4.13;;;2.58;;
80421;SDS011;69763;50.182;9.144;2023-08-07T05:19:05;12.23;;;2.90;;
80421;SDS011;69763;50.182;9.144;2023-08-07T05:21:30;5.93;;;2.67;;
80421;SDS011;69763;50.182;9.144;2023-08-07T05:23:55;10.20;;;2.67;;
80421;SDS011;69763;50.182;9.144;2023-08-07T05:26:21;8.32;;;3.05;;
80421;SDS011;69763;50.182;9.144;2023-08-07T05:28:46;6.88;;;2.85;;
80421;SDS011;69763;50.182;9.144;2023-08-07T05:31:12;7.93;;;2.88;;
80421;SDS011;69763;50.182;9.144;2023-08-07T05:33:37;4.88;;;2.50;;
80421;SDS011;69763;50.182;9.144;2023-08-07T05:36:04;8.88;;;2.78;;
80421;SDS011;69763;50.182;9.144;2023-08-07T05:38:30;4.97;;;2.47;;
80421;SDS011;69763;50.182;9.144;2023-08-07T05:40:55;10.05;;;4.13;;
80421;SDS011;69763;50.182;9.144;2023-08-07T05:43:21;12.82;;;3.15;;
80421;SDS011;69763;50.182;9.144;2023-08-07T05:45:46;7.28;;;3.10;;
80421;SDS011;69763;50.182;9.144;2023-08-07T05:48:12;3.17;;;2.45;;
80421;SDS011;69763;50.182;9.144;2023-08-07T05:50:37;4.07;;;2.58;;
80421;SDS011;69763;50.182;9.144;2023-08-07T05:53:04;10.20;;;3.30;;
80421;SDS011;69763;50.182;9.144;2023-08-07T05:55:29;5.75;;;2.60;;
80421;SDS011;69763;50.182;9.144;2023-08-07T05:57:54;6.05;;;2.90;;
80421;SDS011;69763;50.182;9.144;2023-08-07T06:00:20;6.90;;;2.38;;
80421;SDS011;69763;50.182;9.144;2023-08-07T06:02:45;8.00;;;2.95;;
80421;SDS011;69763;50.182;9.144;2023-08-07T06:05:11;4.90;;;2.88;;
80421;SDS011;69763;50.182;9.144;2023-08-07T06:07:36;8.93;;;2.85;;
80421;SDS011;69763;50.182;9.144;2023-08-07T06:10:03;9.82;;;2.90;;
80421;SDS011;69763;50.182;9.144;2023-08-07T06:12:29;9.57;;;2.80;;
80421;SDS011;69763;50.182;9.144;2023-08-07T06:14:54;9.23;;;3.08;;
80421;SDS011;69763;50.182;9.144;2023-08-07T06:17:20;7.43;;;2.92;;
80421;SDS011;69763;50.182;9.144;2023-08-07T06:19:45;7.22;;;2.53;;
80421;SDS011;69763;50.182;9.144;2023-08-07T06:22:10;5.00;;;2.40;;
80421;SDS011;69763;50.182;9.144;2023-08-07T06:24:36;8.73;;;2.80;;
80421;SDS011;69763;50.182;9.144;2023-08-07T06:27:03;6.20;;;2.55;;
80421;SDS011;69763;50.182;9.144;2023-08-07T06:29:29;7.82;;;2.83;;
80421;SDS011;69763;50.182;9.144;2023-08-07T06:31:54;9.95;;;2.90;;
80421;SDS011;69763;50.182;9.144;2023-08-07T06:34:19;7.90;;;2.63;;
80421;SDS011;69763;50.182;9.144;2023-08-07T06:36:45;7.07;;;2.33;;
80421;SDS011;69763;50.182;9.144;2023-08-07T06:39:10;6.93;;;2.70;;
80421;SDS011;69763;50.182;9.144;2023-08-07T06:41:37;8.95;;;3.00;;
80421;SDS011;69763;50.182;9.144;2023-08-07T06:46:29;10.00;;;2.78;;
80421;SDS011;69763;50.182;9.144;2023-08-07T06:48:54;7.18;;;2.83;;
80421;SDS011;69763;50.182;9.144;2023-08-07T06:51:20;5.45;;;2.58;;
80421;SDS011;69763;50.182;9.144;2023-08-07T06:53:45;5.40;;;2.50;;
80421;SDS011;69763;50.182;9.144;2023-08-07T06:56:10;6.00;;;2.70;;
80421;SDS011;69763;50.182;9.144;2023-08-07T06:58:36;4.82;;;2.47;;
80421;SDS011;69763;50.182;9.144;2023-08-07T07:01:03;7.95;;;2.70;;
80421;SDS011;69763;50.182;9.144;2023-08-07T07:03:28;13.30;;;3.03;;
80421;SDS011;69763;50.182;9.144;2023-08-07T07:05:54;6.65;;;2.53;;
80421;SDS011;69763;50.182;9.144;2023-08-07T07:08:20;9.63;;;2.47;;
80421;SDS011;69763;50.182;9.144;2023-08-07T07:10:45;6.45;;;2.70;;
80421;SDS011;69763;50.182;9.144;2023-08-07T07:13:11;5.70;;;2.67;;
80421;SDS011;69763;50.182;9.144;2023-08-07T07:15:36;6.30;;;2.50;;
80421;SDS011;69763;50.182;9.144;2023-08-07T07:18:03;4.35;;;2.30;;
80421;SDS011;69763;50.182;9.144;2023-08-07T07:20:29;7.53;;;2.40;;
80421;SDS011;69763;50.182;9.144;2023-08-07T07:22:54;5.65;;;2.40;;
80421;SDS011;69763;50.182;9.144;2023-08-07T07:25:20;6.60;;;2.90;;
80421;SDS011;69763;50.182;9.144;2023-08-07T07:27:45;4.68;;;2.28;;
80421;SDS011;69763;50.182;9.144;2023-08-07T07:30:10;4.82;;;2.28;;
80421;SDS011;69763;50.182;9.144;2023-08-07T07:32:36;5.95;;;2.50;;
80421;SDS011;69763;50.182;9.144;2023-08-07T07:35:03;7.50;;;4.47;;
80421;SDS011;69763;50.182;9.144;2023-08-07T07:37:29;3.58;;;2.40;;
80421;SDS011;69763;50.182;9.144;2023-08-07T07:39:55;7.75;;;2.65;;
80421;SDS011;69763;50.182;9.144;2023-08-07T07:42:20;5.43;;;2.50;;
80421;SDS011;69763;50.182;9.144;2023-08-07T07:44:46;6.05;;;2.42;;
80421;SDS011;69763;50.182;9.144;2023-08-07T07:47:11;5.10;;;2.70;;
80421;SDS011;69763;50.182;9.144;2023-08-07T07:49:37;5.82;;;2.65;;
80421;SDS011;69763;50.182;9.144;2023-08-07T07:52:04;3.80;;;2.25;;
80421;SDS011;69763;50.182;9.144;2023-08-07T07:54:30;3.97;;;2.65;;
80421;SDS011;69763;50.182;9.144;2023-08-07T07:56:55;5.85;;;2.55;;
80421;SDS011;69763;50.182;9.144;2023-08-07T07:59:20;4.65;;;2.13;;
80421;SDS011;69763;50.182;9.144;2023-08-07T08:01:46;7.72;;;2.15;;
80421;SDS011;69763;50.182;9.144;2023-08-07T08:04:11;6.38;;;2.55;;
80421;SDS011;69763;50.182;9.144;2023-08-07T08:06:36;4.35;;;2.15;;
80421;SDS011;69763;50.182;9.144;2023-08-07T08:09:03;4.03;;;2.33;;
80421;SDS011;69763;50.182;9.144;2023-08-07T08:11:29;4.97;;;2.47;;
80421;SDS011;69763;50.182;9.144;2023-08-07T08:13:54;6.40;;;2.90;;
80421;SDS011;69763;50.182;9.144;2023-08-07T08:16:20;10.60;;;2.33;;
80421;SDS011;69763;50.182;9.144;2023-08-07T08:18:45;4.40;;;2.15;;
80421;SDS011;69763;50.182;9.144;2023-08-07T08:21:10;7.28;;;2.53;;
80421;SDS011;69763;50.182;9.144;2023-08-07T08:23:36;4.97;;;2.30;;
80421;SDS011;69763;50.182;9.144;2023-08-07T08:26:02;8.52;;;2.55;;
80421;SDS011;69763;50.182;9.144;2023-08-07T08:28:28;10.18;;;2.88;;
80421;SDS011;69763;50.182;9.144;2023-08-07T08:30:56;4.40;;;2.53;;
80421;SDS011;69763;50.182;9.144;2023-08-07T08:33:22;5.40;;;3.45;;
80421;SDS011;69763;50.182;9.144;2023-08-07T08:35:47;7.38;;;3.30;;
80421;SDS011;69763;50.182;9.144;2023-08-07T08:38:12;8.43;;;4.18;;
80421;SDS011;69763;50.182;9.144;2023-08-07T08:40:38;13.32;;;6.07;;
80421;SDS011;69763;50.182;9.144;2023-08-07T08:43:05;11.25;;;5.63;;
80421;SDS011;69763;50.182;9.144;2023-08-07T08:45:31;13.93;;;5.45;;
80421;SDS011;69763;50.182;9.144;2023-08-07T08:48:00;12.20;;;4.10;;
80421;SDS011;69763;50.182;9.144;2023-08-07T08:50:26;10.65;;;3.42;;
80421;SDS011;69763;50.182;9.144;2023-08-07T08:52:53;9.60;;;3.40;;
80421;SDS011;69763;50.182;9.144;2023-08-07T08:55:20;4.78;;;2.65;;
80421;SDS011;69763;50.182;9.144;2023-08-07T08:57:46;7.63;;;3.10;;
80421;SDS011;69763;50.182;9.144;2023-08-07T09:00:13;7.20;;;2.97;;
80421;SDS011;69763;50.182;9.144;2023-08-07T09:02:39;8.80;;;2.97;;
80421;SDS011;69763;50.182;9.144;2023-08-07T09:05:05;7.95;;;2.70;;
80421;SDS011;69763;50.182;9.144;2023-08-07T09:07:32;6.13;;;2.40;;
80421;SDS011;69763;50.182;9.144;2023-08-07T09:09:58;8.93;;;3.22;;
80421;SDS011;69763;50.182;9.144;2023-08-07T09:12:25;6.80;;;3.67;;
80421;SDS011;69763;50.182;9.144;2023-08-07T09:14:54;10.85;;;2.47;;
80421;SDS011;69763;50.182;9.144;2023-08-07T09:17:24;9.88;;;2.95;;
80421;SDS011;69763;50.182;9.144;2023-08-07T09:19:52;5.88;;;3.35;;
80421;SDS011;69763;50.182;9.144;2023-08-07T09:22:18;5.13;;;2.45;;
80421;SDS011;69763;50.182;9.144;2023-08-07T09:24:44;7.10;;;3.17;;
80421;SDS011;69763;50.182;9.144;2023-08-07T09:27:09;6.10;;;3.55;;
80421;SDS011;69763;50.182;9.144;2023-08-07T09:29:35;8.00;;;3.13;;
80421;SDS011;69763;50.182;9.144;2023-08-07T09:32:05;5.35;;;2.38;;
80421;SDS011;69763;50.182;9.144;2023-08-07T09:34:33;6.10;;;2.53;;
80421;SDS011;69763;50.182;9.144;2023-08-07T09:37:01;5.47;;;2.72;;
80421;SDS011;69763;50.182;9.144;2023-08-07T09:39:27;8.95;;;2.80;;
80421;SDS011;69763;50.182;9.144;2023-08-07T09:41:52;5.20;;;2.67;;
80421;SDS011;69763;50.182;9.144;2023-08-07T09:44:17;7.32;;;2.33;;
80421;SDS011;69763;50.182;9.144;2023-08-07T09:46:43;7.15;;;2.47;;
80421;SDS011;69763;50.182;9.144;2023-08-07T09:49:09;5.43;;;2.83;;
80421;SDS011;69763;50.182;9.144;2023-08-07T09:51:42;7.38;;;2.70;;
80421;SDS011;69763;50.182;9.144;2023-08-07T09:54:08;8.38;;;2.80;;
80421;SDS011;69763;50.182;9.144;2023-08-07T09:56:34;4.20;;;2.15;;
80421;SDS011;69763;50.182;9.144;2023-08-07T09:59:00;4.78;;;2.78;;
80421;SDS011;69763;50.182;9.144;2023-08-07T10:01:25;3.72;;;2.58;;
80421;SDS011;69763;50.182;9.144;2023-08-07T10:03:50;5.78;;;2.38;;
80421;SDS011;69763;50.182;9.144;2023-08-07T10:06:17;5.05;;;2.70;;
80421;SDS011;69763;50.182;9.144;2023-08-07T10:08:44;5.75;;;1.90;;
80421;SDS011;69763;50.182;9.144;2023-08-07T10:11:10;5.18;;;2.40;;
80421;SDS011;69763;50.182;9.144;2023-08-07T10:13:36;4.47;;;2.05;;
80421;SDS011;69763;50.182;9.144;2023-08-07T10:16:02;6.70;;;2.50;;
80421;SDS011;69763;50.182;9.144;2023-08-07T10:18:28;5.40;;;2.42;;
80421;SDS011;69763;50.182;9.144;2023-08-07T10:20:53;8.10;;;2.20;;
80421;SDS011;69763;50.182;9.144;2023-08-07T10:23:20;4.97;;;1.92;;
80421;SDS011;69763;50.182;9.144;2023-08-07T10:25:47;3.28;;;2.17;;
80421;SDS011;69763;50.182;9.144;2023-08-07T10:28:16;3.83;;;1.80;;
80421;SDS011;69763;50.182;9.144;2023-08-07T10:30:43;5.38;;;1.75;;
80421;SDS011;69763;50.182;9.144;2023-08-07T10:33:09;4.07;;;1.88;;
80421;SDS011;69763;50.182;9.144;2023-08-07T10:35:37;4.55;;;2.22;;
80421;SDS011;69763;50.182;9.144;2023-08-07T10:38:05;3.10;;;2.00;;
80421;SDS011;69763;50.182;9.144;2023-08-07T10:40:31;3.28;;;1.80;;
80421;SDS011;69763;50.182;9.144;2023-08-07T10:42:58;3.35;;;1.83;;
80421;SDS011;69763;50.182;9.144;2023-08-07T10:45:25;3.13;;;1.70;;
80421;SDS011;69763;50.182;9.144;2023-08-07T10:48:01;5.20;;;2.05;;
80421;SDS011;69763;50.182;9.144;2023-08-07T10:50:28;4.82;;;1.70;;
80421;SDS011;69763;50.182;9.144;2023-08-07T10:52:54;3.60;;;1.77;;
80421;SDS011;69763;50.182;9.144;2023-08-07T10:55:20;3.92;;;1.35;;
80421;SDS011;69763;50.182;9.144;2023-08-07T10:57:46;2.97;;;1.80;;
80421;SDS011;69763;50.182;9.144;2023-08-07T11:00:13;2.92;;;1.63;;
80421;SDS011;69763;50.182;9.144;2023-08-07T11:02:41;2.80;;;1.50;;
80421;SDS011;69763;50.182;9.144;2023-08-07T11:05:07;3.25;;;1.55;;
80421;SDS011;69763;50.182;9.144;2023-08-07T11:07:32;3.95;;;1.80;;
80421;SDS011;69763;50.182;9.144;2023-08-07T11:09:58;2.67;;;1.50;;
80421;SDS011;69763;50.182;9.144;2023-08-07T11:12:24;3.42;;;1.67;;
80421;SDS011;69763;50.182;9.144;2023-08-07T11:14:50;3.38;;;1.25;;
80421;SDS011;69763;50.182;9.144;2023-08-07T11:17:17;1.88;;;1.35;;
80421;SDS011;69763;50.182;9.144;2023-08-07T11:19:42;2.53;;;1.40;;
80421;SDS011;69763;50.182;9.144;2023-08-07T11:22:08;4.38;;;1.58;;
80421;SDS011;69763;50.182;9.144;2023-08-07T11:24:34;2.70;;;1.55;;
80421;SDS011;69763;50.182;9.144;2023-08-07T11:26:59;5.93;;;2.53;;
80421;SDS011;69763;50.182;9.144;2023-08-07T11:29:24;3.63;;;1.73;;
80421;SDS011;69763;50.182;9.144;2023-08-07T11:31:50;3.63;;;1.50;;
80421;SDS011;69763;50.182;9.144;2023-08-07T11:34:18;2.53;;;1.58;;
80421;SDS011;69763;50.182;9.144;2023-08-07T11:36:43;3.28;;;1.55;;
80421;SDS011;69763;50.182;9.144;2023-08-07T11:39:13;3.08;;;2.00;;
80421;SDS011;69763;50.182;9.144;2023-08-07T11:41:38;2.30;;;1.67;;
80421;SDS011;69763;50.182;9.144;2023-08-07T11:44:04;4.15;;;1.75;;
80421;SDS011;69763;50.182;9.144;2023-08-07T11:46:32;2.72;;;1.60;;
80421;SDS011;69763;50.182;9.144;2023-08-07T11:48:58;6.80;;;2.20;;
80421;SDS011;69763;50.182;9.144;2023-08-07T11:51:24;5.13;;;1.95;;
80421;SDS011;69763;50.182;9.144;2023-08-07T11:53:51;3.83;;;1.73;;
80421;SDS011;69763;50.182;9.144;2023-08-07T11:56:17;4.13;;;2.40;;
80421;SDS011;69763;50.182;9.144;2023-08-07T11:58:44;4.95;;;2.13;;
80421;SDS011;69763;50.182;9.144;2023-08-07T12:01:10;5.07;;;2.00;;
80421;SDS011;69763;50.182;9.144;2023-08-07T12:03:38;5.13;;;2.10;;
80421;SDS011;69763;50.182;9.144;2023-08-07T12:06:04;5.07;;;2.15;;
80421;SDS011;69763;50.182;9.144;2023-08-07T12:08:32;3.92;;;2.40;;
80421;SDS011;69763;50.182;9.144;2023-08-07T12:11:00;4.65;;;2.30;;
80421;SDS011;69763;50.182;9.144;2023-08-07T12:13:26;2.97;;;2.10;;
80421;SDS011;69763;50.182;9.144;2023-08-07T12:15:53;6.15;;;2.03;;
80421;SDS011;69763;50.182;9.144;2023-08-07T12:18:19;6.30;;;2.30;;
80421;SDS011;69763;50.182;9.144;2023-08-07T12:20:44;8.35;;;2.70;;
80421;SDS011;69763;50.182;9.144;2023-08-07T12:23:11;8.73;;;3.05;;
80421;SDS011;69763;50.182;9.144;2023-08-07T12:25:40;5.18;;;2.88;;
80421;SDS011;69763;50.182;9.144;2023-08-07T12:28:05;11.27;;;3.20;;
80421;SDS011;69763;50.182;9.144;2023-08-07T12:30:33;10.82;;;3.10;;
80421;SDS011;69763;50.182;9.144;2023-08-07T12:32:59;11.73;;;3.60;;
80421;SDS011;69763;50.182;9.144;2023-08-07T12:35:24;10.25;;;3.60;;
80421;SDS011;69763;50.182;9.144;2023-08-07T12:37:49;17.73;;;4.38;;
80421;SDS011;69763;50.182;9.144;2023-08-07T12:42:42;4.20;;;2.50;;
80421;SDS011;69763;50.182;9.144;2023-08-07T12:45:08;7.15;;;3.50;;
80421;SDS011;69763;50.182;9.144;2023-08-07T12:47:34;6.10;;;2.90;;
80421;SDS011;69763;50.182;9.144;2023-08-07T12:50:00;5.03;;;3.00;;
80421;SDS011;69763;50.182;9.144;2023-08-07T12:52:25;3.88;;;2.47;;
80421;SDS011;69763;50.182;9.144;2023-08-07T12:54:50;9.52;;;2.67;;
80421;SDS011;69763;50.182;9.144;2023-08-07T12:57:16;7.28;;;2.28;;
80421;SDS011;69763;50.182;9.144;2023-08-07T12:59:42;5.97;;;2.42;;
80421;SDS011;69763;50.182;9.144;2023-08-07T13:02:08;5.82;;;2.20;;
80421;SDS011;69763;50.182;9.144;2023-08-07T13:04:33;4.32;;;2.75;;
80421;SDS011;69763;50.182;9.144;2023-08-07T13:06:59;6.72;;;2.65;;
80421;SDS011;69763;50.182;9.144;2023-08-07T13:09:24;5.63;;;2.40;;
80421;SDS011;69763;50.182;9.144;2023-08-07T13:11:49;4.88;;;2.28;;
80421;SDS011;69763;50.182;9.144;2023-08-07T13:14:15;4.30;;;2.10;;
80421;SDS011;69763;50.182;9.144;2023-08-07T13:16:42;5.68;;;2.80;;
80421;SDS011;69763;50.182;9.144;2023-08-07T13:19:07;4.30;;;2.30;;
80421;SDS011;69763;50.182;9.144;2023-08-07T13:21:33;7.70;;;2.15;;
80421;SDS011;69763;50.182;9.144;2023-08-07T13:23:58;6.20;;;2.70;;
80421;SDS011;69763;50.182;9.144;2023-08-07T13:26:23;7.10;;;2.92;;
80421;SDS011;69763;50.182;9.144;2023-08-07T13:28:49;5.20;;;2.50;;
80421;SDS011;69763;50.182;9.144;2023-08-07T13:31:14;4.50;;;1.83;;
80421;SDS011;69763;50.182;9.144;2023-08-07T13:33:41;4.78;;;2.17;;
80421;SDS011;69763;50.182;9.144;2023-08-07T13:36:06;3.17;;;1.65;;
80421;SDS011;69763;50.182;9.144;2023-08-07T13:38:32;4.88;;;1.98;;
80421;SDS011;69763;50.182;9.144;2023-08-07T13:40:57;2.88;;;1.33;;
80421;SDS011;69763;50.182;9.144;2023-08-07T13:43:23;4.28;;;2.00;;
80421;SDS011;69763;50.182;9.144;2023-08-07T13:45:48;4.80;;;2.10;;
80421;SDS011;69763;50.182;9.144;2023-08-07T13:48:14;7.18;;;1.98;;
80421;SDS011;69763;50.182;9.144;2023-08-07T13:50:40;4.35;;;2.00;;
80421;SDS011;69763;50.182;9.144;2023-08-07T13:53:06;4.57;;;2.45;;
80421;SDS011;69763;50.182;9.144;2023-08-07T13:55:31;4.95;;;2.15;;
80421;SDS011;69763;50.182;9.144;2023-08-07T13:57:56;6.43;;;2.00;;
80421;SDS011;69763;50.182;9.144;2023-08-07T14:00:22;4.68;;;1.90;;
80421;SDS011;69763;50.182;9.144;2023-08-07T14:02:47;4.18;;;1.65;;
80421;SDS011;69763;50.182;9.144;2023-08-07T14:05:13;5.63;;;1.73;;
80421;SDS011;69763;50.182;9.144;2023-08-07T14:07:39;4.45;;;1.63;;
80421;SDS011;69763;50.182;9.144;2023-08-07T14:10:05;7.30;;;2.10;;
80421;SDS011;69763;50.182;9.144;2023-08-07T14:12:31;4.68;;;2.10;;
80421;SDS011;69763;50.182;9.144;2023-08-07T14:14:56;6.82;;;2.05;;
80421;SDS011;69763;50.182;9.144;2023-08-07T14:17:22;3.22;;;1.85;;
80421;SDS011;69763;50.182;9.144;2023-08-07T14:19:47;7.97;;;2.60;;
80421;SDS011;69763;50.182;9.144;2023-08-07T14:22:13;5.78;;;2.35;;
80421;SDS011;69763;50.182;9.144;2023-08-07T14:24:39;3.15;;;2.00;;
80421;SDS011;69763;50.182;9.144;2023-08-07T14:27:05;4.47;;;2.15;;
80421;SDS011;69763;50.182;9.144;2023-08-07T14:29:30;3.70;;;2.28;;
80421;SDS011;69763;50.182;9.144;2023-08-07T14:31:56;4.40;;;2.15;;
80421;SDS011;69763;50.182;9.144;2023-08-07T14:34:21;4.07;;;2.00;;
80421;SDS011;69763;50.182;9.144;2023-08-07T14:36:47;6.40;;;2.40;;
80421;SDS011;69763;50.182;9.144;2023-08-07T14:39:12;3.40;;;1.55;;
80421;SDS011;69763;50.182;9.144;2023-08-07T14:41:39;6.57;;;1.63;;
80421;SDS011;69763;50.182;9.144;2023-08-07T14:44:04;4.53;;;1.98;;